Arctic - Eastern Arctic: Past 24 Hour Conditions

 

Taloyoak Airport

03:00 PM MST 25 November 2014
This table is a summary of hourly weather conditions for the past 24 hours.
Date / Time
(MST)
Wind(knots) Conditions Visibility(km) Pressure(kPa) Air tempC) Relative humidity(%) Dew pointC) Wind Chill
25 November 2014
15:00 NW 15 Light Snow 24 101.0 -25 71 -29 -39
14:00 NW 14 gust 19 Drifting Snow 24 101.0 -25 71 -29 -38
13:00 NW 19 Blowing Snow 5 100.9 -25 79 -27 -39
12:00 NW 17 Drifting Snow 24 100.9 -26 78 -28 -40
11:00 NNW 11 Drifting Snow 24 100.9 -25 78 -28 -37
10:00 NNW 12 Drifting Snow 24 100.8 -23 73 -27 -35
9:00 NNW 12 gust 18 Drifting Snow 24 100.8 -24 72 -28 -36
8:00 NW 3 Mainly Clear 24 100.8 -26 69 -30 -31
7:00 NNW 10 Mainly Clear 24 100.8 -27 67 -31 -39
6:00 NNW 8 Mainly Clear 24 100.8 -28 66 -32 -39
5:00 NW 9 Mainly Clear 24 100.8 -27 67 -32 -39
4:00 NNW 7 Clear 24 100.7 -30 75 -33 -40
3:00 NNW 8 Clear 24 100.7 -30 74 -34 -42
2:00 N 7 Clear 24 100.7 -31 74 -34 -42
1:00 NNW 15 Drifting Snow 24 100.6 -30 74 -33 -45
0:00 NW 18 Drifting Snow 21 100.5 -30 75 -33 -46
24 November 2014
23:00 NW 19 gust 24 Drifting Snow 16 100.5 -30 75 -33 -46
22:00 NW 21 gust 26 Drifting Snow 16 100.5 -30 75 -33 -47
21:00 NW 20 gust 27 Drifting Snow 13 100.5 -30 75 -33 -46
20:00 NW 18 Drifting Snow 19 100.4 -29 75 -32 -45
19:00 NW 16 Drifting Snow 24 100.5 -29 75 -32 -45
18:00 NW 16 Drifting Snow 24 100.5 -29 75 -32 -45
17:00 NW 15 Drifting Snow 24 100.5 -29 64 -34 -44
16:00 NW 18 Drifting Snow 24 100.5 -28 66 -33 -44
15:00 NNW 15 Drifting Snow 24 100.5 -28 66 -32 -43
 
Map of Arctic - Eastern Arctic marine weather areas Baker Lake Airport Chesterfield Inlet Airport Coral Harbour Airport Gjoa Haven Airport Kugaaruk Airport Rankin Inlet Airport Shepherd Bay Airport Whale Cove Airport Arctic Bay Brevoort Island Qikiqtarjuaq Airport Cape Dorset Airport Cape Dyer Cape Hooper Clyde Airport Grise Fiord Airport Hall Beach Airport Igloolik Airport Iqaluit Airport Longstaff Bluff Pangnirtung Airport Pond Inlet Airport Repulse Bay Airport Resolute Airport Resolution Island Rowley Island Airport Taloyoak Airport Wager Bay Akulivik Airport Ivujivik Airport Puvirnituq Airport Kangiqsujuaq Airport Kangirsuk Airport Quaqtaq Airport Tasiujaq Airport Cape Kakkiviak Cape Kiglapait Nain Airport Saglek Cape Mercy Kimmirut Airport Aupaluk Airport Salluit Airport Kangiqsualujjuaq Airport Fort Ross
Legend: buoyBuoy land stationLand Station